Time;durP1;ratioP1;P1;durP2;ratioP2;P2;SDS_P1;SDS_P2;PMS_P1;PMS_P2;Temp;Humidity;BMP_temperature;BMP_pressure;BME280_temperature;BME280_humidity;BME280_pressure;Samples;Min_cycle;Max_cycle;Signal;HPM_P1;HPM_P2
2022/01/21 09:48:55;;;;;;;3.87;2.73;;;;;;;1.94;90.13;100344.22;5178697;27;20527;-88
2022/01/21 09:51:23;;;;;;;4.10;2.23;;;;;;;2.42;87.72;100324.81;5126775;27;38953;-87
2022/01/21 09:53:50;;;;;;;2.80;2.17;;;;;;;3.03;84.34;100353.16;5142080;27;40429;-83
2022/01/21 09:56:18;;;;;;;4.03;2.20;;;;;;;3.38;81.74;100363.31;5111895;27;41877;-85
2022/01/21 09:58:47;;;;;;;4.97;2.10;;;;;;;3.76;80.71;100374.28;5113205;27;42302;-87
2022/01/21 10:01:19;;;;;;;4.93;2.77;;;;;;;3.95;78.82;100381.06;5115018;27;39733;-86
2022/01/21 10:03:50;;;;;;;4.80;3.10;;;;;;;4.01;77.84;100368.75;5097191;28;40876;-87
2022/01/21 10:06:22;;;;;;;3.97;2.27;;;;;;;4.14;76.66;100380.84;5093704;28;41230;-87
2022/01/21 10:08:54;;;;;;;5.63;2.43;;;;;;;4.24;75.75;100371.97;5093349;28;41189;-89
2022/01/21 10:11:22;;;;;;;5.70;2.27;;;;;;;4.32;75.80;100375.38;5103222;27;39188;-84
2022/01/21 10:13:52;;;;;;;3.43;2.40;;;;;;;4.52;75.59;100382.97;5112239;27;41775;-86
2022/01/21 10:16:19;;;;;;;6.07;2.40;;;;;;;4.63;74.81;100375.81;5109145;28;43024;-90
2022/01/21 10:19:04;;;;;;;3.47;2.40;;;;;;;4.78;72.94;100382.59;5092724;28;41855;-87
2022/01/21 10:21:36;;;;;;;3.17;1.90;;;;;;;5.07;72.83;100383.00;5096704;27;38935;-85
2022/01/21 10:24:06;;;;;;;6.07;3.40;;;;;;;5.24;72.37;100380.13;5110708;27;40413;-84
2022/01/21 10:26:35;;;;;;;6.07;2.47;;;;;;;5.44;70.88;100371.94;5110722;27;41892;-84
2022/01/21 10:29:02;;;;;;;4.43;2.50;;;;;;;5.71;70.00;100392.44;5111625;27;41972;-84
2022/01/21 10:31:30;;;;;;;3.53;2.50;;;;;;;5.85;69.50;100389.56;5111272;27;39306;-84
2022/01/21 10:34:05;;;;;;;7.77;2.97;;;;;;;5.88;68.41;100379.00;5129731;27;41928;-85
2022/01/21 10:36:35;;;;;;;5.30;2.47;;;;;;;6.00;68.53;100390.16;5106622;28;42112;-84
2022/01/21 10:39:10;;;;;;;3.87;2.57;;;;;;;6.00;67.54;100387.53;5108235;28;41214;-84
2022/01/21 10:41:42;;;;;;;7.33;2.90;;;;;;;6.07;67.05;100389.13;5099264;27;39025;-83
2022/01/21 10:44:12;;;;;;;9.20;3.10;;;;;;;6.13;66.60;100375.88;5138366;27;41263;-85
2022/01/21 10:46:42;;;;;;;6.27;2.60;;;;;;;6.17;65.20;100386.34;5120898;27;42008;-84
2022/01/21 10:49:13;;;;;;;6.87;2.97;;;;;;;6.13;64.99;100380.28;5124375;27;41286;-85
2022/01/21 10:51:49;;;;;;;5.73;2.87;;;;;;;6.33;65.34;100387.75;5126893;27;38678;-85
2022/01/21 10:54:19;;;;;;;4.60;2.53;;;;;;;6.45;65.00;100376.97;5123280;27;40372;-85
2022/01/21 10:57:09;;;;;;;5.77;2.90;;;;;;;6.56;64.74;100380.22;5126127;27;41793;-86
2022/01/21 10:59:56;;;;;;;4.33;2.90;;;;;;;6.64;63.94;100359.03;5112391;28;40788;-86
2022/01/21 11:02:35;;;;;;;5.87;2.63;;;;;;;6.79;62.13;100367.44;5108446;28;38897;-88
2022/01/21 11:05:09;;;;;;;4.33;2.90;;;;;;;6.91;62.50;100362.78;5128546;28;41159;-88
2022/01/21 11:07:49;;;;;;;4.23;2.73;;;;;;;8.20;61.79;100354.09;5110654;28;42213;-87
2022/01/21 11:10:37;;;;;;;4.27;2.73;;;;;;;13.11;51.37;100401.34;5110794;28;41612;-85
2022/01/21 11:13:26;;;;;;;4.67;2.07;;;;;;;16.91;41.24;100447.78;5104634;28;39053;-87
2022/01/21 11:15:58;;;;;;;4.33;2.20;;;;;;;19.15;39.59;100428.00;5103489;28;41784;-86
2022/01/21 11:18:26;;;;;;;2.30;2.10;;;;;;;20.40;34.92;100425.63;5121989;28;42864;-84
2022/01/21 11:21:04;;;;;;;4.43;1.93;;;;;;;19.29;34.77;100450.19;5096039;28;42235;-84
2022/01/21 11:23:33;;;;;;;2.20;1.93;;;;;;;17.34;36.14;100413.75;5121798;28;40433;-85
2022/01/21 11:26:03;;;;;;;4.30;2.00;;;;;;;16.03;38.63;100401.47;5099732;28;40825;-88
2022/01/21 11:28:39;;;;;;;2.63;1.90;;;;;;;14.64;40.64;100379.25;5104156;28;42958;-89
2022/01/21 11:31:08;;;;;;;4.20;2.00;;;;;;;14.12;42.62;100359.84;5093697;28;40910;-88
2022/01/21 11:33:42;;;;;;;3.80;2.20;;;;;;;14.72;40.53;100342.34;5076960;28;40069;-87
2022/01/21 11:36:11;;;;;;;3.07;1.70;;;;;;;16.98;39.45;100390.22;5095107;28;42675;-85
2022/01/21 11:38:45;;;;;;;2.93;2.40;;;;;;;19.85;33.23;100446.97;5114179;28;42984;-87
2022/01/21 11:41:14;;;;;;;3.03;2.40;;;;;;;20.93;31.07;100463.63;5092973;28;40846;-83
2022/01/21 11:43:49;;;;;;;4.63;2.27;;;;;;;19.63;32.18;100440.53;5076808;28;38795;-84
2022/01/21 11:46:25;;;;;;;4.63;2.63;;;;;;;17.85;33.19;100438.94;5078627;28;44497;-84
2022/01/21 11:48:54;;;;;;;4.33;2.07;;;;;;;16.46;36.10;100420.22;5097192;28;41530;-86
2022/01/21 11:51:27;;;;;;;3.87;2.00;;;;;;;15.54;37.40;100422.19;5112856;28;41373;-85
2022/01/21 11:53:57;;;;;;;2.33;1.90;;;;;;;14.12;39.23;100372.31;5097580;28;39810;-88
2022/01/21 11:56:43;;;;;;;4.53;1.97;;;;;;;13.82;40.76;100398.75;5095623;28;40806;-87
2022/01/21 11:59:25;;;;;;;3.70;2.00;;;;;;;13.53;41.99;100389.56;5097010;28;41758;-87
2022/01/21 12:01:54;;;;;;;3.40;2.03;;;;;;;14.09;41.19;100377.81;5095843;28;41515;-86
2022/01/21 12:04:40;;;;;;;3.53;1.73;;;;;;;13.54;40.66;100394.81;5096452;28;38907;-86
2022/01/21 12:07:51;;;;;;;2.43;1.50;;;;;;;12.84;41.35;100386.72;5096316;28;41644;-85
2022/01/21 12:10:31;;;;;;;2.63;1.77;;;;;;;12.79;41.86;100359.47;5112309;28;41833;-85
2022/01/21 12:13:18;;;;;;;2.37;1.50;;;;;;;14.34;39.81;100364.91;5078998;28;41251;-87
2022/01/21 12:22:12;;;;;;;2.60;2.13;;;;;;;11.99;42.58;100356.97;5096683;28;42248;-85
2022/01/21 12:24:56;;;;;;;2.03;1.60;;;;;;;11.21;44.16;100337.34;5096211;28;43285;-87
2022/01/21 12:27:26;;;;;;;2.90;1.60;;;;;;;11.24;45.23;100331.91;5099349;28;39029;-86
2022/01/21 12:30:26;;;;;;;2.40;1.60;;;;;;;11.39;45.92;100336.56;5109031;28;41214;-86
2022/01/21 12:32:56;;;;;;;3.67;1.83;;;;;;;12.13;44.52;100345.72;5120697;28;43345;-84
2022/01/21 12:35:46;;;;;;;1.87;1.50;;;;;;;12.30;44.59;100331.69;5117627;28;42715;-85
2022/01/21 12:41:35;;;;;;;2.30;1.63;;;;;;;11.75;44.86;100327.03;5048136;28;40939;-85
2022/01/21 12:44:05;;;;;;;4.53;1.90;;;;;;;11.48;46.11;100317.63;5093745;28;42845;-86
2022/01/21 12:46:40;;;;;;;2.83;1.90;;;;;;;11.15;46.15;100331.34;5089750;28;41156;-86
2022/01/21 12:49:50;;;;;;;4.90;2.20;;;;;;;10.57;47.01;100316.06;5103526;28;39077;-84
2022/01/21 12:53:15;;;;;;;5.40;2.10;;;;;;;10.17;48.65;100325.50;5058697;28;41132;-85
2022/01/21 12:55:59;;;;;;;3.00;1.97;;;;;;;9.70;49.19;100317.53;5041006;28;41941;-82
2022/01/21 12:58:30;;;;;;;2.23;1.73;;;;;;;9.40;50.35;100294.78;5101260;28;40769;-86
2022/01/21 13:00:58;;;;;;;3.37;1.63;;;;;;;9.33;50.90;100307.38;5097841;28;40825;-87
2022/01/21 13:03:30;;;;;;;4.33;1.57;;;;;;;9.15;51.55;100312.44;5094705;28;42482;-86
2022/01/21 13:06:08;;;;;;;5.20;2.23;;;;;;;8.84;51.43;100302.84;5095037;28;41780;-86
2022/01/21 13:08:43;;;;;;;4.47;2.03;;;;;;;8.61;52.35;100290.38;5109423;28;42143;-84
2022/01/21 13:11:12;;;;;;;4.07;2.20;;;;;;;8.39;52.71;100276.13;5095237;28;39207;-85
2022/01/21 13:13:51;;;;;;;3.40;2.00;;;;;;;8.31;52.90;100283.38;5094954;28;40929;-83
2022/01/21 13:16:27;;;;;;;3.67;2.23;;;;;;;8.55;53.18;100287.06;5094822;28;41877;-81
2022/01/21 13:19:06;;;;;;;4.93;2.37;;;;;;;8.39;53.73;100291.09;5094158;28;41106;-83
2022/01/21 13:21:35;;;;;;;4.03;2.10;;;;;;;8.21;53.63;100301.25;5094905;28;38748;-83
2022/01/21 13:24:15;;;;;;;3.10;1.70;;;;;;;8.00;54.36;100288.72;5094177;28;41243;-82
2022/01/21 13:26:43;;;;;;;6.97;2.57;;;;;;;7.69;55.40;100266.75;5095284;28;43023;-85
2022/01/21 13:29:14;;;;;;;5.90;2.83;;;;;;;7.66;55.74;100280.03;5093472;28;42312;-84
2022/01/21 13:31:54;;;;;;;2.27;1.70;;;;;;;7.52;56.14;100285.69;5094801;28;40355;-84
2022/01/21 13:34:26;;;;;;;3.73;1.70;;;;;;;7.34;56.21;100273.84;5090361;28;40756;-84
2022/01/21 13:36:56;;;;;;;4.43;1.60;;;;;;;7.26;56.74;100267.94;5093423;28;41924;-84
2022/01/21 13:39:26;;;;;;;2.27;1.83;;;;;;;7.32;57.02;100294.09;5076705;28;40779;-84
2022/01/21 13:42:01;;;;;;;3.57;1.73;;;;;;;7.08;57.49;100252.59;5111440;28;39472;-85
2022/01/21 13:44:36;;;;;;;5.47;2.40;;;;;;;7.05;57.67;100255.31;5085195;28;41812;-85
2022/01/21 13:47:06;;;;;;;1.67;1.47;;;;;;;6.81;58.56;100236.59;5085209;28;42162;-86
2022/01/21 13:49:34;;;;;;;2.27;1.73;;;;;;;6.81;58.96;100260.28;5093883;28;41054;-87
2022/01/21 13:52:04;;;;;;;5.73;2.23;;;;;;;6.78;59.18;100277.94;5101528;28;41691;-81
2022/01/21 13:54:38;;;;;;;3.50;2.10;;;;;;;6.70;59.71;100272.84;5093701;28;40572;-86
2022/01/21 13:57:07;;;;;;;2.50;2.00;;;;;;;6.42;59.79;100250.75;5095751;28;42961;-84
2022/01/21 13:59:42;;;;;;;4.20;2.10;;;;;;;6.48;60.85;100267.25;5097872;28;40897;-84
2022/01/21 14:02:12;;;;;;;6.60;2.70;;;;;;;6.32;60.69;100251.84;5084643;28;40202;-84
2022/01/21 14:04:41;;;;;;;4.57;1.83;;;;;;;6.02;60.45;100214.81;5093830;28;40714;-85
2022/01/21 14:07:22;;;;;;;5.87;2.27;;;;;;;6.19;61.62;100259.13;5093552;28;42790;-85
2022/01/21 14:09:50;;;;;;;7.50;2.63;;;;;;;6.17;61.41;100265.34;5093011;28;41645;-85
2022/01/21 14:12:18;;;;;;;3.13;2.07;;;;;;;5.99;61.54;100230.66;5093367;28;39029;-83
2022/01/21 14:14:48;;;;;;;4.63;2.40;;;;;;;6.23;61.36;100265.19;5110191;28;41861;-82
2022/01/21 14:17:18;;;;;;;3.73;2.30;;;;;;;6.16;61.46;100261.00;5110671;28;41680;-82
2022/01/21 14:19:46;;;;;;;3.30;1.97;;;;;;;6.18;62.08;100267.97;5093096;28;42156;-84
2022/01/21 14:22:18;;;;;;;2.97;2.17;;;;;;;6.22;62.55;100284.50;5093128;28;39222;-82
2022/01/21 14:24:52;;;;;;;3.57;1.83;;;;;;;6.05;62.81;100272.63;5092865;28;40614;-84
2022/01/21 14:27:23;;;;;;;4.07;1.63;;;;;;;5.96;63.64;100267.53;5093014;28;42519;-84
2022/01/21 14:29:59;;;;;;;2.53;1.90;;;;;;;6.02;63.69;100272.66;5092983;28;42539;-85
2022/01/21 14:32:32;;;;;;;4.73;1.73;;;;;;;5.88;63.74;100264.22;5093764;28;39229;-85
2022/01/21 14:35:09;;;;;;;5.50;2.10;;;;;;;5.97;63.57;100269.25;5096209;28;41941;-85
2022/01/21 14:37:40;;;;;;;3.83;1.93;;;;;;;5.68;63.56;100225.16;5096403;28;41610;-84
2022/01/21 14:40:09;;;;;;;2.30;2.10;;;;;;;5.86;63.42;100249.31;5110168;28;41970;-86
2022/01/21 14:42:37;;;;;;;3.87;1.87;;;;;;;5.91;63.64;100253.63;5092789;28;38927;-86
2022/01/21 14:45:15;;;;;;;4.73;2.00;;;;;;;5.91;64.18;100253.63;5095311;28;40836;-86
2022/01/21 14:47:44;;;;;;;4.50;1.90;;;;;;;5.51;63.76;100192.25;5093027;28;42244;-86
2022/01/21 14:50:14;;;;;;;2.77;2.00;;;;;;;5.52;64.67;100207.09;5093179;28;42010;-86
2022/01/21 14:52:43;;;;;;;3.53;2.50;;;;;;;5.90;64.44;100274.69;5110433;28;39922;-82
2022/01/21 14:55:22;;;;;;;2.63;1.80;;;;;;;5.50;64.88;100232.53;5093196;28;41094;-85
2022/01/21 14:57:56;;;;;;;6.47;1.83;;;;;;;5.47;65.13;100233.47;5106641;28;42499;-84
2022/01/21 15:00:28;;;;;;;3.67;1.90;;;;;;;5.18;65.36;100207.78;5094189;28;41110;-85
2022/01/21 15:03:18;;;;;;;2.83;2.10;;;;;;;5.59;65.30;100287.53;5093109;28;39633;-85
2022/01/21 15:05:49;;;;;;;4.10;1.90;;;;;;;5.10;65.07;100214.06;5086618;28;42028;-85
2022/01/21 15:08:31;;;;;;;2.87;2.23;;;;;;;5.55;65.17;100291.16;5093228;28;42981;-83
2022/01/21 15:11:18;;;;;;;2.73;1.60;;;;;;;5.26;65.49;100245.25;5088756;28;41337;-86
2022/01/21 15:16:34;;;;;;;3.30;2.20;;;;;;;5.53;65.56;100293.78;5107906;28;42024;-84
2022/01/21 15:19:02;;;;;;;4.33;1.93;;;;;;;5.44;65.57;100277.34;5093406;28;42853;-86
2022/01/21 15:21:32;;;;;;;4.33;1.53;;;;;;;5.50;65.57;100288.59;5108168;28;42581;-86
2022/01/21 15:24:00;;;;;;;4.60;2.10;;;;;;;5.32;65.48;100258.25;5093987;28;38977;-86
2022/01/21 15:26:28;;;;;;;2.73;1.80;;;;;;;5.54;65.36;100294.66;5092186;28;41460;-87
2022/01/21 15:29:04;;;;;;;2.93;1.70;;;;;;;5.48;65.71;100294.75;5093997;28;41901;-86
2022/01/21 15:31:35;;;;;;;3.63;1.73;;;;;;;5.49;65.74;100301.75;5092375;28;41088;-85
2022/01/21 15:34:03;;;;;;;1.73;1.60;;;;;;;5.36;66.14;100296.72;5089283;28;38812;-85
2022/01/21 15:36:30;;;;;;;2.30;1.70;;;;;;;5.38;66.34;100309.84;5093320;28;41488;-88
2022/01/21 15:38:59;;;;;;;3.97;2.13;;;;;;;5.24;66.84;100299.56;5093227;28;41616;-83
2022/01/21 15:41:26;;;;;;;2.67;2.27;;;;;;;5.29;67.15;100292.50;5091583;28;44242;-84
2022/01/21 15:43:54;;;;;;;3.17;1.73;;;;;;;5.26;66.96;100291.66;5093691;28;38826;-84
2022/01/21 15:46:22;;;;;;;4.83;2.57;;;;;;;5.27;67.06;100307.41;5092793;28;40952;-84
2022/01/21 15:48:50;;;;;;;2.63;2.20;;;;;;;5.25;67.38;100305.69;5092571;28;41728;-86
2022/01/21 15:51:19;;;;;;;3.90;2.17;;;;;;;5.24;67.37;100317.09;5088909;28;41255;-84
2022/01/21 15:53:47;;;;;;;2.87;2.00;;;;;;;5.11;67.46;100298.06;5109964;28;39278;-82
2022/01/21 15:56:14;;;;;;;3.17;2.17;;;;;;;4.92;67.29;100270.41;5092402;28;40398;-84
2022/01/21 15:58:42;;;;;;;2.13;1.60;;;;;;;5.07;67.64;100293.75;5093511;28;43304;-85
2022/01/21 16:01:11;;;;;;;3.47;2.30;;;;;;;5.03;67.27;100281.56;5109790;28;41987;-85
2022/01/21 16:03:41;;;;;;;4.83;2.10;;;;;;;5.12;67.86;100298.94;5092860;28;38856;-84
2022/01/21 16:06:12;;;;;;;3.50;2.30;;;;;;;5.07;68.10;100293.75;5092791;28;40604;-85
2022/01/21 16:08:42;;;;;;;4.37;2.53;;;;;;;5.01;68.07;100293.88;5093721;28;41857;-86
2022/01/21 16:11:10;;;;;;;2.57;2.10;;;;;;;4.97;68.17;100300.03;5092191;28;41712;-85
2022/01/21 16:13:38;;;;;;;2.43;2.23;;;;;;;4.96;68.25;100300.94;5092985;28;39056;-82
2022/01/21 16:16:07;;;;;;;4.57;2.10;;;;;;;4.92;68.27;100305.38;5092952;28;41718;-87
2022/01/21 16:18:35;;;;;;;2.20;1.73;;;;;;;4.89;68.61;100304.56;5093110;28;43271;-88
2022/01/21 16:21:04;;;;;;;2.17;1.90;;;;;;;4.81;68.94;100290.72;5093092;28;41507;-86
2022/01/21 16:23:34;;;;;;;5.37;1.87;;;;;;;4.86;69.05;100315.09;5089294;28;38999;-87
2022/01/21 16:26:04;;;;;;;3.77;2.37;;;;;;;4.75;68.78;100285.53;5089932;28;41184;-87
2022/01/21 16:28:38;;;;;;;3.87;1.80;;;;;;;4.69;69.29;100286.53;5095045;28;42948;-86
2022/01/21 16:31:05;;;;;;;2.93;1.90;;;;;;;4.72;69.24;100291.69;5090016;28;42531;-86
2022/01/21 16:33:33;;;;;;;2.20;1.73;;;;;;;4.67;69.33;100281.31;5105482;28;38730;-86
2022/01/21 16:36:00;;;;;;;5.37;2.50;;;;;;;4.74;69.03;100289.94;5109731;28;40376;-84
2022/01/21 16:38:29;;;;;;;5.90;2.10;;;;;;;4.74;69.18;100294.31;5095038;28;41586;-86
2022/01/21 16:40:58;;;;;;;3.37;1.80;;;;;;;4.81;69.43;100295.97;5092848;28;42214;-87
2022/01/21 16:43:27;;;;;;;4.03;1.93;;;;;;;4.71;69.27;100282.09;5088664;28;39129;-86
2022/01/21 16:45:57;;;;;;;3.13;1.83;;;;;;;4.84;69.09;100306.38;5092134;28;41171;-87
2022/01/21 16:48:25;;;;;;;3.93;2.33;;;;;;;4.79;69.26;100292.50;5092909;28;43329;-87
2022/01/21 16:50:56;;;;;;;5.53;2.40;;;;;;;4.84;69.09;100306.38;5091189;28;43726;-85
2022/01/21 16:53:24;;;;;;;4.33;2.60;;;;;;;4.78;69.31;100306.50;5089195;28;39122;-84
2022/01/21 16:55:51;;;;;;;3.23;1.93;;;;;;;4.67;69.78;100285.69;5108430;28;39914;-85
2022/01/21 16:58:20;;;;;;;3.77;2.07;;;;;;;4.70;69.57;100296.09;5108834;28;43090;-86
2022/01/21 17:00:50;;;;;;;2.30;1.70;;;;;;;4.80;69.60;100305.59;5092222;28;42070;-85
2022/01/21 17:03:18;;;;;;;6.23;1.97;;;;;;;4.83;69.27;100294.16;5091944;28;39652;-86
2022/01/21 17:05:46;;;;;;;2.77;1.70;;;;;;;4.76;69.88;100303.03;5091582;28;41066;-87
2022/01/21 17:08:14;;;;;;;2.17;1.73;;;;;;;4.68;70.31;100280.41;5106984;28;43649;-86
2022/01/21 17:10:42;;;;;;;2.00;1.77;;;;;;;4.80;69.76;100295.09;5091385;28;42134;-82
2022/01/21 17:13:10;;;;;;;2.43;1.50;;;;;;;4.73;69.51;100266.31;5091210;28;38802;-82
2022/01/21 17:15:45;;;;;;;3.57;1.93;;;;;;;4.83;69.70;100283.66;5090662;28;40859;-82
2022/01/21 17:18:15;;;;;;;4.00;2.40;;;;;;;4.80;69.58;100283.72;5091435;28;41850;-83
2022/01/21 17:20:44;;;;;;;5.47;2.87;;;;;;;4.72;69.84;100269.84;5091901;28;41104;-83
2022/01/21 17:23:12;;;;;;;5.50;2.30;;;;;;;4.66;69.69;100269.06;5105257;28;39816;-83
2022/01/21 17:25:39;;;;;;;8.20;2.27;;;;;;;4.66;69.84;100266.44;5092258;28;41602;-83
2022/01/21 17:28:07;;;;;;;3.43;2.53;;;;;;;4.68;69.51;100269.91;5111014;28;42857;-82
2022/01/21 17:30:35;;;;;;;4.43;2.37;;;;;;;4.82;69.98;100276.69;5092730;28;41289;-82
2022/01/21 17:33:04;;;;;;;3.70;2.40;;;;;;;4.82;69.79;100287.19;5092617;28;40134;-83
2022/01/21 17:35:32;;;;;;;3.03;1.87;;;;;;;4.81;70.12;100277.59;5091446;28;40680;-82
2022/01/21 17:38:00;;;;;;;4.00;2.10;;;;;;;4.77;69.96;100273.28;5108975;28;41717;-83
2022/01/21 17:40:28;;;;;;;3.57;2.03;;;;;;;4.73;69.97;100268.94;5091290;28;41955;-82
2022/01/21 17:42:57;;;;;;;3.87;2.03;;;;;;;4.76;70.28;100282.03;5091175;28;39760;-83
2022/01/21 17:45:24;;;;;;;3.40;2.00;;;;;;;4.43;70.45;100237.09;5107570;28;41734;-82
2022/01/21 17:47:54;;;;;;;4.10;2.20;;;;;;;4.50;70.68;100264.06;5089828;28;42229;-83
2022/01/21 17:50:26;;;;;;;4.23;2.60;;;;;;;4.56;70.70;100271.88;5106852;28;42539;-82
2022/01/21 17:52:54;;;;;;;4.13;1.93;;;;;;;4.68;70.56;100280.41;5091996;28;39040;-82
2022/01/21 17:55:22;;;;;;;4.67;2.40;;;;;;;4.42;70.69;100234.47;5091393;28;41707;-82
2022/01/21 17:57:51;;;;;;;2.07;1.67;;;;;;;4.63;70.85;100271.72;5089456;28;41822;-80
2022/01/21 18:00:21;;;;;;;7.47;2.47;;;;;;;4.70;71.06;100280.34;5105862;28;41959;-82
2022/01/21 18:02:49;;;;;;;4.63;2.20;;;;;;;4.60;70.65;100270.91;5108746;28;39699;-82
2022/01/21 18:05:16;;;;;;;3.03;2.30;;;;;;;4.58;70.90;100278.78;5090664;28;40697;-81
2022/01/21 18:07:50;;;;;;;2.13;1.73;;;;;;;4.57;71.07;100274.47;5090965;28;43291;-82
2022/01/21 18:10:27;;;;;;;5.27;2.23;;;;;;;4.58;71.03;100291.03;5095591;28;41057;-83
2022/01/21 18:12:56;;;;;;;4.47;2.23;;;;;;;4.61;71.46;100289.25;5103699;27;40024;-83
2022/01/21 18:15:23;;;;;;;5.87;2.20;;;;;;;4.64;71.63;100304.97;5101165;28;40946;-82
2022/01/21 18:17:52;;;;;;;3.87;2.50;;;;;;;4.66;71.55;100307.56;5096785;28;41746;-86
2022/01/21 18:20:20;;;;;;;5.77;2.60;;;;;;;4.49;71.38;100283.31;5097878;28;40908;-82
2022/01/21 18:22:49;;;;;;;4.03;3.10;;;;;;;4.68;71.63;100317.16;5114940;28;41104;-82
2022/01/21 18:25:17;;;;;;;3.47;2.17;;;;;;;4.66;71.68;100308.44;5097185;28;41368;-86
2022/01/21 18:27:44;;;;;;;2.97;2.10;;;;;;;4.55;71.48;100294.59;5114780;28;43389;-83
2022/01/21 18:30:13;;;;;;;4.10;2.57;;;;;;;4.61;71.31;100289.25;5097426;28;42311;-82
2022/01/21 18:32:41;;;;;;;5.37;2.77;;;;;;;4.51;71.61;100277.16;5097990;28;38746;-83
2022/01/21 18:35:09;;;;;;;7.37;2.87;;;;;;;4.60;71.71;100287.50;5097323;28;40738;-80
2022/01/21 18:37:36;;;;;;;3.40;2.50;;;;;;;4.73;71.48;100305.69;5114708;28;43818;-82
2022/01/21 18:40:07;;;;;;;4.00;2.20;;;;;;;4.56;71.37;100274.50;5111532;28;42506;-81
2022/01/21 18:42:39;;;;;;;3.90;2.50;;;;;;;4.75;71.74;100307.41;5097621;28;38842;-81
2022/01/21 18:45:12;;;;;;;3.27;2.50;;;;;;;4.67;71.51;100285.69;5097170;28;40490;-82
2022/01/21 18:47:42;;;;;;;4.40;1.90;;;;;;;4.68;71.88;100284.78;5112608;28;42788;-82
2022/01/21 18:50:13;;;;;;;3.17;2.47;;;;;;;4.73;71.59;100279.44;5097014;28;41532;-82
2022/01/21 18:52:42;;;;;;;4.73;2.40;;;;;;;4.79;71.65;100295.97;5111601;28;38646;-83
2022/01/21 18:55:12;;;;;;;6.60;2.07;;;;;;;4.61;72.28;100278.75;5112961;28;40921;-82
2022/01/21 18:57:40;;;;;;;5.10;3.33;;;;;;;4.62;72.26;100285.75;5097377;28;41887;-83
2022/01/21 19:00:11;;;;;;;5.40;2.67;;;;;;;4.64;72.10;100298.84;5103643;28;40907;-80
2022/01/21 19:02:43;;;;;;;5.97;2.53;;;;;;;4.65;72.74;100296.19;5097650;28;38880;-84
2022/01/21 19:05:15;;;;;;;6.00;2.80;;;;;;;4.40;72.76;100263.34;5094053;28;42743;-82
2022/01/21 19:07:43;;;;;;;6.67;2.67;;;;;;;4.68;73.37;100327.66;5118633;28;43216;-81
2022/01/21 19:10:15;;;;;;;4.00;1.97;;;;;;;4.53;74.23;100291.13;5105809;28;41869;-82
2022/01/21 19:12:43;;;;;;;3.17;2.37;;;;;;;4.53;74.36;100290.28;5096124;28;38907;-81
2022/01/21 19:15:11;;;;;;;4.30;2.10;;;;;;;4.17;74.47;100249.72;5111595;28;40723;-83
2022/01/21 19:17:39;;;;;;;2.27;2.00;;;;;;;4.43;74.78;100284.31;5112761;28;41226;-83
2022/01/21 19:20:09;;;;;;;2.57;2.10;;;;;;;4.38;75.19;100275.63;5108300;28;40773;-83
2022/01/21 19:22:44;;;;;;;5.17;2.47;;;;;;;4.52;75.99;100297.28;5123300;28;40326;-85
2022/01/21 19:25:17;;;;;;;2.57;2.00;;;;;;;4.49;76.14;100307.81;5091575;28;40390;-83
2022/01/21 19:27:46;;;;;;;3.00;2.07;;;;;;;4.36;76.25;100282.63;5096959;28;41589;-82
2022/01/21 19:30:19;;;;;;;4.07;2.20;;;;;;;4.37;76.53;100289.63;5096414;28;41159;-83
2022/01/21 19:32:47;;;;;;;7.27;2.83;;;;;;;4.14;77.21;100262.84;5097508;28;39719;-83
2022/01/21 19:35:15;;;;;;;4.17;2.47;;;;;;;4.26;77.69;100291.53;5113348;28;42722;-83
2022/01/21 19:37:43;;;;;;;3.77;2.67;;;;;;;4.29;78.22;100307.22;5096082;28;44629;-86
2022/01/21 19:40:13;;;;;;;4.20;2.50;;;;;;;4.22;78.46;100279.34;5112224;28;42477;-82
2022/01/21 19:42:41;;;;;;;4.53;2.37;;;;;;;4.16;78.33;100275.06;5109981;28;40127;-82
